Etusivu
METAR-TAF:

METAR-TAF

Lentoasemat :

Samaná, Dominikaaninen tasavalta

Leveyspiiri: 19-11-55N, Pituuspiiri: 69-25-47W, korkeus merenpinnasta: 18 m

Tämänhetkinen sää

Tämä raportti tehtiin 8 tuntia ja 43 minuuttia sitten, kello 22.00 UTC
tyyntä
Lämpötila 28°C
Kosteus 84%
Ilmanpaine 1015 hPa
Näkyvyys 10 km tai enemmän
Muutamia pilviä 1700 ft:n korkeudessa, Cumulonimbus.
Hajanaisia pilviä 1800 ft:n korkeudessa
Hajonneita pilviä 30000 ft:n korkeudessa

METAR: MDAB 242200Z 00000KT 9999 FEW017CB SCT018 BKN300 28/25 Q1015 CB/SW/W

Aika: 02:43 (06:43 UTC)


TAF: puuttuu

Säähavainnot ja -ennusteet yli 4000 lentoasemalta (METAR- ja TAF-raportit).

Käytössä olevat sääasemat on merkitty karttaan keltaisilla ja punaisilla pisteillä.

Aseta hiiri pisteen päälle nähdäksesi sääaseman nimen.

Klikkaa sitten nähdäksesi säähavainnot ja -ennusteet.

Kartan vaihtaminen: klikkaa mustalla rastilla varustettuja vihreitä pisteitä, niin voit zoomata sisään; viivalla varustettua vihreää pistettä, niin voit zoomata ulos tai vihreitä nuolia, niin pääset viereisille kartoille.


METAR-TAF: